createdAt,value
2018-02-13T00:00:50.423Z,110.5493
2018-02-13T00:01:55.888Z,109.8756
2018-02-13T00:03:01.341Z,108.8662
2018-02-13T00:04:06.495Z,109.8756
2018-02-13T00:05:11.981Z,110.5493
2018-02-13T00:06:16.323Z,110.3802
2018-02-13T00:07:21.762Z,109.3709
2018-02-13T00:08:27.273Z,110.5493
2018-02-13T00:09:33.171Z,109.8756
2018-02-13T00:10:38.081Z,110.803
2018-02-13T00:11:43.556Z,110.1292
2018-02-13T00:12:49.336Z,110.1292
2018-02-13T00:13:54.804Z,110.5493
2018-02-13T00:15:00.027Z,109.6245
2018-02-13T00:16:05.363Z,110.5493
2018-02-13T00:17:09.974Z,109.6245
2018-02-13T00:18:15.445Z,110.1292
2018-02-13T00:19:20.596Z,110.5493
2018-02-13T00:20:26.080Z,109.6245
2018-02-13T00:21:31.829Z,110.803
2018-02-13T00:22:37.293Z,110.3802
2018-02-13T00:23:42.761Z,110.1292
2018-02-13T00:24:48.642Z,110.5493
2018-02-13T00:25:53.821Z,109.3709
2018-02-13T00:26:59.012Z,110.1292
2018-02-13T00:28:04.993Z,109.8756
2018-02-13T00:29:09.885Z,109.6245
2018-02-13T00:30:15.080Z,109.8756
2018-02-13T00:31:19.923Z,110.3802
2018-02-13T00:32:25.393Z,110.3802
2018-02-13T00:33:31.278Z,109.3709
2018-02-13T00:34:36.747Z,110.1292
2018-02-13T00:35:41.659Z,109.8756
2018-02-13T00:36:47.396Z,110.5493
2018-02-13T00:37:52.859Z,111.054
2018-02-13T00:38:58.049Z,109.3709
2018-02-13T00:40:03.985Z,110.803
2018-02-13T00:41:09.158Z,110.803
2018-02-13T00:42:14.341Z,110.5493
2018-02-13T00:43:19.777Z,109.3709
2018-02-13T00:44:25.240Z,110.5493
2018-02-13T00:45:30.308Z,110.3802
2018-02-13T00:46:35.763Z,110.5493
2018-02-13T00:47:41.261Z,110.5493
2018-02-13T00:48:46.520Z,111.054
2018-02-13T00:49:51.708Z,111.5587
2018-02-13T00:50:57.189Z,111.054
2018-02-13T00:52:02.255Z,111.054
2018-02-13T00:53:07.433Z,110.803
2018-02-13T00:54:12.943Z,110.5493
2018-02-13T00:55:18.864Z,110.5493
2018-02-13T00:56:24.319Z,110.5493
2018-02-13T00:57:30.205Z,110.803
2018-02-13T00:58:35.681Z,110.1292
2018-02-13T00:59:41.154Z,110.5493
2018-02-13T01:00:46.580Z,110.803
2018-02-13T01:01:52.052Z,110.1292
2018-02-13T01:02:57.500Z,111.5587
2018-02-13T01:04:03.252Z,111.054
2018-02-13T01:05:08.150Z,111.3051
2018-02-13T01:06:13.614Z,111.5587
2018-02-13T01:07:18.506Z,111.8124
2018-02-13T01:08:23.709Z,111.3051
2018-02-13T01:09:29.163Z,111.5587
2018-02-13T01:10:34.349Z,111.3051
2018-02-13T01:11:38.971Z,112.0634
2018-02-13T01:12:45.048Z,111.8124
2018-02-13T01:13:50.241Z,111.8124
2018-02-13T01:14:55.165Z,111.8124
2018-02-13T01:16:00.435Z,111.5587
2018-02-13T01:17:05.882Z,112.0634
2018-02-13T01:18:11.083Z,111.5587
2018-02-13T01:19:16.916Z,112.3171
2018-02-13T01:20:22.434Z,111.8124
2018-02-13T01:21:27.580Z,111.054
2018-02-13T01:22:33.076Z,111.5587
2018-02-13T01:23:38.564Z,112.0634
2018-02-13T01:24:44.041Z,111.5587
2018-02-13T01:25:48.923Z,112.0634
2018-02-13T01:26:54.388Z,112.0634
2018-02-13T01:28:00.118Z,111.8124
2018-02-13T01:29:05.037Z,111.3051
2018-02-13T01:30:10.226Z,112.5681
2018-02-13T01:31:15.752Z,112.0634
2018-02-13T01:32:20.660Z,112.0634
2018-02-13T01:33:40.905Z,111.3051
2018-02-13T01:34:46.375Z,111.8124
2018-02-13T01:35:51.552Z,111.5587
2018-02-13T01:36:56.420Z,111.8124
2018-02-13T01:38:01.328Z,111.054
2018-02-13T01:39:06.509Z,112.0634
2018-02-13T01:40:12.226Z,111.054
2018-02-13T01:41:17.410Z,112.0634
2018-02-13T01:42:22.889Z,112.3171
2018-02-13T01:43:28.860Z,111.8124
2018-02-13T01:44:34.342Z,112.0634
2018-02-13T01:45:40.730Z,112.0634
2018-02-13T01:46:45.917Z,111.054
2018-02-13T01:47:51.391Z,112.0634
2018-02-13T01:48:56.837Z,111.8124
2018-02-13T01:50:01.766Z,111.8124
2018-02-13T01:51:06.675Z,112.0634
2018-02-13T01:52:12.243Z,111.8124
2018-02-13T01:53:17.448Z,111.3051
2018-02-13T01:54:22.916Z,111.5587
2018-02-13T01:55:28.798Z,112.3171
2018-02-13T01:56:34.257Z,112.5681
2018-02-13T01:57:40.163Z,112.3171
2018-02-13T01:58:45.559Z,111.5587
2018-02-13T01:59:51.020Z,112.0634
2018-02-13T02:00:56.749Z,112.3171
2018-02-13T02:02:01.385Z,112.0634
2018-02-13T02:03:06.873Z,112.3171
2018-02-13T02:04:12.136Z,112.5681
2018-02-13T02:05:17.061Z,111.5587
2018-02-13T02:06:22.535Z,112.3171
2018-02-13T02:07:28.251Z,112.0634
2018-02-13T02:08:33.458Z,111.8124
2018-02-13T02:09:39.038Z,111.3051
2018-02-13T02:10:44.501Z,111.8124
2018-02-13T02:11:49.429Z,112.0634
2018-02-13T02:12:54.767Z,112.0634
2018-02-13T02:14:00.254Z,111.8124
2018-02-13T02:15:05.438Z,111.5587
2018-02-13T02:16:10.614Z,111.8124
2018-02-13T02:17:15.527Z,111.5587
2018-02-13T02:18:21.005Z,112.0634
2018-02-13T02:19:41.204Z,112.3171
2018-02-13T02:20:46.404Z,111.5587
2018-02-13T02:21:51.981Z,111.5587
2018-02-13T02:22:57.465Z,112.3171
2018-02-13T02:24:02.092Z,111.3051
2018-02-13T02:25:07.517Z,112.0634
2018-02-13T02:26:12.701Z,112.0634
2018-02-13T02:27:17.605Z,112.0634
2018-02-13T02:28:23.326Z,111.8124
2018-02-13T02:29:28.521Z,111.8124
2018-02-13T02:30:34.433Z,112.5681
2018-02-13T02:31:39.616Z,111.3051
2018-02-13T02:32:45.073Z,112.3171
2018-02-13T02:33:50.648Z,112.0634
2018-02-13T02:34:55.861Z,112.0634
2018-02-13T02:36:01.052Z,111.5587
2018-02-13T02:37:06.491Z,111.5587
2018-02-13T02:38:11.664Z,112.3171
2018-02-13T02:39:16.887Z,112.8217
2018-02-13T02:40:22.716Z,112.3171
2018-02-13T02:41:27.903Z,112.5681
2018-02-13T02:42:33.562Z,112.5681
2018-02-13T02:43:39.032Z,112.8217
2018-02-13T02:44:44.516Z,111.5587
2018-02-13T02:45:49.935Z,112.5681
2018-02-13T02:46:55.420Z,112.8217
2018-02-13T02:48:00.882Z,113.2419
2018-02-13T02:49:05.473Z,112.9882
2018-02-13T02:50:10.944Z,113.662
2018-02-13T02:51:16.130Z,112.8217
2018-02-13T02:52:21.974Z,112.5681
2018-02-13T02:53:27.176Z,113.662
2018-02-13T02:54:32.314Z,112.9882
2018-02-13T02:55:37.507Z,112.8217
2018-02-13T02:56:42.404Z,112.3171
2018-02-13T02:57:48.179Z,113.2419
2018-02-13T02:58:53.640Z,113.662
2018-02-13T02:59:58.831Z,113.2419
2018-02-13T03:01:03.996Z,113.662
2018-02-13T03:02:08.909Z,112.9882
2018-02-13T03:03:14.120Z,112.9882
2018-02-13T03:04:19.942Z,113.662
2018-02-13T03:05:25.137Z,113.662
2018-02-13T03:06:30.913Z,113.4929
2018-02-13T03:07:35.798Z,114.4203
2018-02-13T03:08:41.261Z,113.662
2018-02-13T03:09:46.991Z,113.9157
2018-02-13T03:10:52.462Z,113.2419
2018-02-13T03:11:57.943Z,113.662
2018-02-13T03:13:03.653Z,112.8217
2018-02-13T03:14:09.116Z,113.2419
2018-02-13T03:15:14.312Z,112.9882
2018-02-13T03:16:20.034Z,114.4203
2018-02-13T03:17:25.208Z,113.9157
2018-02-13T03:18:31.015Z,114.4203
2018-02-13T03:19:36.476Z,113.4929
2018-02-13T03:20:41.946Z,113.662
2018-02-13T03:21:47.670Z,113.662
2018-02-13T03:22:52.861Z,113.2419
2018-02-13T03:23:58.046Z,113.662
2018-02-13T03:25:03.770Z,113.9157
2018-02-13T03:26:08.398Z,113.662
2018-02-13T03:27:13.028Z,113.4929
2018-02-13T03:28:18.736Z,113.4929
2018-02-13T03:29:23.903Z,113.4929
2018-02-13T03:30:29.680Z,113.2419
2018-02-13T03:31:35.142Z,113.2419
2018-02-13T03:32:40.652Z,113.662
2018-02-13T03:33:46.211Z,113.9157
2018-02-13T03:34:51.699Z,114.4203
2018-02-13T03:35:57.172Z,113.662
2018-02-13T03:37:02.793Z,114.1667
2018-02-13T03:38:07.124Z,114.1667
2018-02-13T03:39:12.311Z,114.4203
2018-02-13T03:40:18.137Z,113.9157
2018-02-13T03:41:23.342Z,114.1667
2018-02-13T03:42:29.027Z,114.4203
2018-02-13T03:43:34.528Z,114.4203
2018-02-13T03:44:39.714Z,114.6714
2018-02-13T03:45:44.870Z,114.4203
2018-02-13T03:46:50.053Z,113.9157
2018-02-13T03:47:55.509Z,115.4297
2018-02-13T03:49:00.943Z,113.662
2018-02-13T03:50:06.149Z,114.1667
2018-02-13T03:51:11.349Z,114.4203
2018-02-13T03:52:17.207Z,114.1667
2018-02-13T03:53:22.661Z,115.1787
2018-02-13T03:54:28.735Z,114.1667
2018-02-13T03:55:33.658Z,114.1667
2018-02-13T03:56:39.130Z,114.925
2018-02-13T03:57:44.840Z,115.5988
2018-02-13T03:58:50.302Z,114.1667
2018-02-13T03:59:55.804Z,114.6714
2018-02-13T04:01:00.997Z,115.1787
2018-02-13T04:02:06.181Z,115.8498
2018-02-13T04:03:11.654Z,114.925
2018-02-13T04:04:17.104Z,113.2419
2018-02-13T04:05:22.577Z,115.4297
2018-02-13T04:06:27.905Z,114.1667
2018-02-13T04:07:33.362Z,114.4203
2018-02-13T04:08:38.539Z,115.1787
2018-02-13T04:09:44.398Z,115.5988
2018-02-13T04:10:49.864Z,114.6714
2018-02-13T04:11:55.327Z,114.4203
2018-02-13T04:13:00.931Z,114.925
2018-02-13T04:14:05.840Z,114.6714
2018-02-13T04:15:11.036Z,115.1787
2018-02-13T04:16:16.480Z,115.4297
2018-02-13T04:17:21.964Z,114.4203
2018-02-13T04:18:27.707Z,115.5988
2018-02-13T04:19:33.178Z,114.925
2018-02-13T04:20:38.642Z,113.9157
2018-02-13T04:21:44.521Z,114.6714
2018-02-13T04:22:49.973Z,115.1787
2018-02-13T04:23:55.428Z,114.6714
2018-02-13T04:25:01.257Z,114.925
2018-02-13T04:26:06.155Z,114.925
2018-02-13T04:27:11.350Z,114.4203
2018-02-13T04:28:16.942Z,114.6714
2018-02-13T04:29:22.140Z,113.9157
2018-02-13T04:30:27.500Z,113.9157
2018-02-13T04:31:32.689Z,114.4203
2018-02-13T04:32:38.178Z,114.6714
2018-02-13T04:33:43.328Z,114.4203
2018-02-13T04:34:48.790Z,114.925
2018-02-13T04:35:54.257Z,115.1787
2018-02-13T04:36:59.827Z,114.4203
2018-02-13T04:38:05.053Z,114.4203
2018-02-13T04:39:10.220Z,114.6714
2018-02-13T04:40:15.662Z,114.6714
2018-02-13T04:41:20.839Z,115.4297
2018-02-13T04:42:41.010Z,114.925
2018-02-13T04:43:46.193Z,115.4297
2018-02-13T04:44:51.360Z,114.925
2018-02-13T04:45:57.085Z,115.4297
2018-02-13T04:47:02.253Z,114.925
2018-02-13T04:48:07.172Z,114.6714
2018-02-13T04:49:12.327Z,115.1787
2018-02-13T04:50:17.811Z,113.9157
2018-02-13T04:51:22.700Z,115.4297
2018-02-13T04:52:28.490Z,114.6714
2018-02-13T04:53:33.974Z,114.925
2018-02-13T04:54:39.857Z,115.1787
2018-02-13T04:55:45.309Z,115.1787
2018-02-13T04:56:50.796Z,115.1787
2018-02-13T04:57:55.882Z,115.5988
2018-02-13T04:59:01.357Z,115.1787
2018-02-13T05:00:06.815Z,115.1787
2018-02-13T05:01:12.359Z,115.4297
2018-02-13T05:02:17.580Z,115.8498
2018-02-13T05:03:22.190Z,115.4297
2018-02-13T05:04:27.663Z,115.5988
2018-02-13T05:05:33.343Z,116.1035
2018-02-13T05:06:39.250Z,116.1035
2018-02-13T05:07:44.149Z,115.8498
2018-02-13T05:08:49.321Z,115.8498
2018-02-13T05:09:55.050Z,115.8498
2018-02-13T05:11:00.517Z,116.8618
2018-02-13T05:12:06.067Z,116.6082
2018-02-13T05:13:11.880Z,116.1035
2018-02-13T05:14:17.087Z,116.6082
2018-02-13T05:15:22.033Z,116.6082
2018-02-13T05:16:28.159Z,116.6082
2018-02-13T05:17:33.506Z,116.6082
2018-02-13T05:18:39.212Z,116.3572
2018-02-13T05:19:44.879Z,117.1129
2018-02-13T05:20:50.090Z,116.6082
2018-02-13T05:21:56.256Z,117.1129
2018-02-13T05:23:01.461Z,117.8712
2018-02-13T05:24:06.952Z,116.6082
2018-02-13T05:25:12.735Z,117.3665
2018-02-13T05:26:18.209Z,117.1129
2018-02-13T05:27:23.102Z,116.6082
2018-02-13T05:28:29.174Z,116.8618
2018-02-13T05:29:34.354Z,117.3665
2018-02-13T05:30:40.085Z,117.1129
2018-02-13T05:31:45.587Z,116.8618
2018-02-13T05:32:50.776Z,117.3665
2018-02-13T05:33:56.503Z,118.2913
2018-02-13T05:35:01.725Z,117.1129
2018-02-13T05:36:06.336Z,118.2913
2018-02-13T05:37:11.587Z,117.8712
2018-02-13T05:38:16.766Z,117.8712
2018-02-13T05:39:22.254Z,117.8712
2018-02-13T05:40:28.158Z,118.0403
2018-02-13T05:41:33.629Z,118.2913
2018-02-13T05:42:39.376Z,116.8618
2018-02-13T05:43:45.092Z,118.0403
2018-02-13T05:44:50.566Z,117.6176
2018-02-13T05:45:56.329Z,117.6176
2018-02-13T05:47:01.366Z,117.6176
2018-02-13T05:48:06.538Z,118.545
2018-02-13T05:49:11.440Z,118.0403
2018-02-13T05:50:16.897Z,118.0403
2018-02-13T05:51:22.106Z,117.8712
2018-02-13T05:52:27.690Z,118.0403
2018-02-13T05:53:33.170Z,118.2913
2018-02-13T05:54:38.591Z,118.2913
2018-02-13T05:55:43.791Z,118.2913
2018-02-13T05:56:49.254Z,117.8712
2018-02-13T05:57:54.414Z,118.2913
2018-02-13T05:58:59.907Z,117.6176
2018-02-13T06:00:05.367Z,118.2913
2018-02-13T06:01:11.086Z,118.545
2018-02-13T06:02:16.581Z,118.7987
2018-02-13T06:03:22.190Z,118.2913
2018-02-13T06:04:28.118Z,118.545
2018-02-13T06:05:33.297Z,118.7987
2018-02-13T06:06:38.549Z,119.3034
2018-02-13T06:07:44.019Z,119.0497
2018-02-13T06:08:49.506Z,118.2913
2018-02-13T06:09:54.411Z,118.2913
2018-02-13T06:10:59.595Z,118.7987
2018-02-13T06:12:05.265Z,119.0497
2018-02-13T06:13:10.724Z,117.6176
2018-02-13T06:14:15.919Z,119.3034
2018-02-13T06:15:21.093Z,120.0591
2018-02-13T06:16:41.176Z,118.7987
2018-02-13T06:17:46.070Z,119.0497
2018-02-13T06:18:51.791Z,118.7987
2018-02-13T06:19:56.968Z,119.0497
2018-02-13T06:21:02.416Z,119.3034
2018-02-13T06:22:07.867Z,119.3034
2018-02-13T06:23:12.780Z,119.5544
2018-02-13T06:24:18.234Z,119.3034
2018-02-13T06:25:23.421Z,119.3034
2018-02-13T06:26:28.666Z,119.808
2018-02-13T06:27:33.996Z,119.3034
2018-02-13T06:28:39.192Z,119.808
2018-02-13T06:29:44.712Z,119.5544
2018-02-13T06:30:49.949Z,119.808
2018-02-13T06:31:55.419Z,118.7987
2018-02-13T06:33:00.645Z,118.7987
2018-02-13T06:34:06.147Z,118.7987
2018-02-13T06:35:11.336Z,119.808
2018-02-13T06:36:16.540Z,118.2913
2018-02-13T06:37:22.262Z,119.808
2018-02-13T06:38:27.427Z,119.5544
2018-02-13T06:39:32.846Z,119.3034
2018-02-13T06:40:38.098Z,119.0497
2018-02-13T06:41:42.752Z,120.0591
2018-02-13T06:42:48.640Z,118.7987
2018-02-13T06:43:54.158Z,118.545
2018-02-13T06:44:59.344Z,120.3127
2018-02-13T06:46:04.910Z,119.0497
2018-02-13T06:47:10.088Z,118.7987
2018-02-13T06:48:15.031Z,119.5544
2018-02-13T06:49:20.934Z,120.0591
2018-02-13T06:50:26.425Z,119.0497
2018-02-13T06:51:32.304Z,119.3034
2018-02-13T06:52:37.471Z,118.7987
2018-02-13T06:53:42.370Z,118.0403
2018-02-13T06:54:48.089Z,118.2913
2018-02-13T06:55:53.276Z,118.545
2018-02-13T06:56:58.782Z,118.2913
2018-02-13T06:58:04.244Z,118.545
2018-02-13T06:59:09.756Z,119.0497
2018-02-13T07:00:14.947Z,118.545
2018-02-13T07:01:20.612Z,118.2913
2018-02-13T07:02:25.522Z,119.3034
2018-02-13T07:03:30.943Z,119.3034
2018-02-13T07:04:36.411Z,118.2913
2018-02-13T07:05:41.943Z,118.7987
2018-02-13T07:06:47.652Z,118.2913
2018-02-13T07:07:53.042Z,117.8712
2018-02-13T07:08:58.243Z,118.0403
2018-02-13T07:10:03.960Z,117.6176
2018-02-13T07:11:09.183Z,117.8712
2018-02-13T07:12:14.090Z,117.8712
2018-02-13T07:13:19.387Z,118.0403
2018-02-13T07:14:24.518Z,117.3665
2018-02-13T07:15:30.150Z,118.0403
2018-02-13T07:16:35.115Z,118.545
2018-02-13T07:17:40.371Z,118.2913
2018-02-13T07:18:45.817Z,117.1129
2018-02-13T07:19:51.023Z,118.2913
2018-02-13T07:20:55.953Z,117.6176
2018-02-13T07:22:00.877Z,117.1129
2018-02-13T07:23:06.346Z,117.6176
2018-02-13T07:24:11.799Z,118.0403
2018-02-13T07:25:17.267Z,117.6176
2018-02-13T07:26:22.162Z,117.1129
2018-02-13T07:27:27.845Z,117.3665
2018-02-13T07:28:33.314Z,118.0403
2018-02-13T07:29:38.510Z,116.8618
2018-02-13T07:30:44.306Z,116.8618
2018-02-13T07:31:49.778Z,117.3665
2018-02-13T07:32:54.700Z,117.6176
2018-02-13T07:34:00.451Z,117.1129
2018-02-13T07:35:05.378Z,117.1129
2018-02-13T07:36:10.563Z,116.8618
2018-02-13T07:37:15.772Z,116.3572
2018-02-13T07:38:20.951Z,115.5988
2018-02-13T07:39:41.460Z,116.1035
2018-02-13T07:40:46.923Z,116.6082
2018-02-13T07:41:52.144Z,115.5988
2018-02-13T07:42:57.677Z,116.6082
2018-02-13T07:44:02.598Z,115.8498
2018-02-13T07:45:07.788Z,116.3572
2018-02-13T07:46:13.217Z,116.3572
2018-02-13T07:47:18.691Z,116.6082
2018-02-13T07:49:44.344Z,116.8618
2018-02-13T07:50:49.268Z,116.6082
2018-02-13T07:51:54.987Z,116.1035
2018-02-13T07:53:00.509Z,116.3572
2018-02-13T07:54:05.944Z,116.8618
2018-02-13T07:55:11.129Z,117.6176
2018-02-13T07:56:16.613Z,116.3572
2018-02-13T07:57:22.035Z,116.3572
2018-02-13T07:58:27.298Z,116.8618
2018-02-13T07:59:32.681Z,116.8618
2018-02-13T08:00:38.108Z,117.3665
2018-02-13T08:01:43.568Z,117.6176
2018-02-13T08:02:48.743Z,117.6176
2018-02-13T08:03:54.465Z,117.3665
2018-02-13T08:04:59.936Z,117.3665
2018-02-13T08:06:04.586Z,117.3665
2018-02-13T08:07:09.725Z,118.0403
2018-02-13T08:08:14.826Z,117.3665
2018-02-13T08:09:20.297Z,117.6176
2018-02-13T08:10:25.868Z,117.3665
2018-02-13T08:11:31.063Z,117.3665
2018-02-13T08:12:36.493Z,117.3665
2018-02-13T08:13:41.665Z,118.0403
2018-02-13T08:14:46.851Z,117.6176
2018-02-13T08:15:52.658Z,118.0403
2018-02-13T08:16:58.138Z,118.0403
2018-02-13T08:18:03.084Z,118.2913
2018-02-13T08:19:08.484Z,118.0403
2018-02-13T08:20:14.011Z,118.0403
2018-02-13T08:21:19.470Z,117.6176
2018-02-13T08:22:25.088Z,118.2913
2018-02-13T08:23:30.273Z,118.0403
2018-02-13T08:24:35.416Z,118.7987
2018-02-13T08:25:40.885Z,118.2913
2018-02-13T08:26:46.368Z,118.7987
2018-02-13T08:27:52.309Z,118.2913
2018-02-13T08:28:56.932Z,119.0497
2018-02-13T08:30:02.116Z,118.7987
2018-02-13T08:31:07.291Z,118.545
2018-02-13T08:32:12.479Z,118.7987
2018-02-13T08:33:17.667Z,118.7987
2018-02-13T08:34:23.097Z,118.0403
2018-02-13T08:35:27.722Z,118.545
2018-02-13T08:36:33.041Z,118.545
2018-02-13T08:37:38.239Z,119.3034
2018-02-13T08:38:43.418Z,119.0497
2018-02-13T08:39:48.472Z,118.2913
2018-02-13T08:40:54.187Z,119.5544
2018-02-13T08:41:59.368Z,118.7987
2018-02-13T08:43:04.812Z,118.2913
2018-02-13T08:44:09.444Z,118.2913
2018-02-13T08:45:14.904Z,118.0403
2018-02-13T08:46:20.628Z,118.545
2018-02-13T08:47:25.531Z,118.7987
2018-02-13T08:48:30.969Z,119.0497
2018-02-13T08:49:36.159Z,119.0497
2018-02-13T08:50:41.343Z,118.7987
2018-02-13T08:51:46.815Z,118.2913
2018-02-13T08:52:51.724Z,118.545
2018-02-13T08:53:56.941Z,118.7987
2018-02-13T08:55:02.430Z,119.3034
2018-02-13T08:56:07.323Z,119.3034
2018-02-13T08:57:12.813Z,118.0403
2018-02-13T08:58:18.284Z,119.0497
2018-02-13T08:59:23.467Z,119.0497
2018-02-13T09:00:29.371Z,119.0497
2018-02-13T09:01:34.563Z,118.545
2018-02-13T09:02:39.758Z,118.2913
2018-02-13T09:03:45.200Z,119.0497
2018-02-13T09:04:50.154Z,118.2913
2018-02-13T09:05:54.761Z,118.2913
2018-02-13T09:07:00.578Z,117.6176
2018-02-13T09:08:06.051Z,118.545
2018-02-13T09:09:10.948Z,117.6176
2018-02-13T09:10:16.421Z,118.0403
2018-02-13T09:11:21.610Z,118.0403
2018-02-13T09:12:27.620Z,118.2913
2018-02-13T09:13:33.095Z,118.7987
2018-02-13T09:14:38.340Z,119.0497
2018-02-13T09:15:43.529Z,119.3034
2018-02-13T09:16:48.426Z,118.545
2018-02-13T09:17:53.897Z,119.0497
2018-02-13T09:18:59.640Z,119.3034
2018-02-13T09:20:05.140Z,119.0497
2018-02-13T09:21:10.333Z,118.545
2018-02-13T09:22:15.816Z,118.545
2018-02-13T09:23:20.714Z,118.7987
2018-02-13T09:24:40.814Z,119.3034
2018-02-13T09:25:45.712Z,119.5544
2018-02-13T09:26:50.904Z,119.3034
2018-02-13T09:27:56.330Z,120.3127
2018-02-13T09:29:01.800Z,119.808
2018-02-13T09:30:06.703Z,119.0497
2018-02-13T09:31:12.157Z,120.0591
2018-02-13T09:32:16.808Z,120.3127
2018-02-13T09:33:22.279Z,119.5544
2018-02-13T09:34:27.769Z,119.3034
2018-02-13T09:35:33.237Z,120.3127
2018-02-13T09:36:38.524Z,119.5544
2018-02-13T09:37:43.705Z,120.3127
2018-02-13T09:38:49.406Z,120.4818
2018-02-13T09:39:54.627Z,120.7328
2018-02-13T09:41:00.108Z,120.4818
2018-02-13T09:42:05.012Z,120.9865
2018-02-13T09:43:10.182Z,120.0591
2018-02-13T09:44:15.088Z,120.9865
2018-02-13T09:45:20.261Z,120.4818
2018-02-13T09:46:25.470Z,120.4818
2018-02-13T09:47:30.648Z,120.9865
2018-02-13T09:48:36.162Z,120.3127
2018-02-13T09:49:41.369Z,119.808
2018-02-13T09:50:46.574Z,120.9865
2018-02-13T09:51:51.777Z,120.4818
2018-02-13T09:52:56.679Z,120.0591
2018-02-13T09:54:01.859Z,120.4818
2018-02-13T09:55:06.473Z,119.808
2018-02-13T09:56:11.667Z,120.4818
2018-02-13T09:57:16.846Z,120.0591
2018-02-13T09:58:22.333Z,120.4818
2018-02-13T09:59:27.276Z,120.9865
2018-02-13T10:00:33.255Z,120.3127
2018-02-13T10:01:38.660Z,120.4818
2018-02-13T10:02:43.575Z,120.4818
2018-02-13T10:03:49.051Z,120.4818
2018-02-13T10:04:53.656Z,120.4818
2018-02-13T10:05:58.758Z,119.5544
2018-02-13T10:07:04.518Z,120.9865
2018-02-13T10:08:09.416Z,120.3127
2018-02-13T10:09:14.343Z,119.5544
2018-02-13T10:10:20.116Z,120.9865
2018-02-13T10:11:25.599Z,120.3127
2018-02-13T10:12:31.460Z,120.4818
2018-02-13T10:13:36.928Z,120.9865
2018-02-13T10:14:42.392Z,120.7328
2018-02-13T10:15:48.201Z,120.3127
2018-02-13T10:16:53.401Z,120.9865
2018-02-13T10:17:58.303Z,120.9865
2018-02-13T10:19:03.800Z,120.7328
2018-02-13T10:20:09.177Z,120.7328
2018-02-13T10:21:13.803Z,121.7449
2018-02-13T10:22:19.590Z,120.7328
2018-02-13T10:23:24.515Z,120.9865
2018-02-13T10:24:29.724Z,120.4818
2018-02-13T10:25:35.203Z,121.2402
2018-02-13T10:26:40.408Z,121.2402
2018-02-13T10:27:46.191Z,120.4818
2018-02-13T10:28:51.366Z,121.2402
2018-02-13T10:29:56.559Z,122.2495
2018-02-13T10:31:02.338Z,122.2495
2018-02-13T10:32:07.683Z,121.7449
2018-02-13T10:33:12.595Z,121.7449
2018-02-13T10:34:18.188Z,121.2402
2018-02-13T10:35:22.831Z,121.4912
2018-02-13T10:36:28.605Z,122.5032
2018-02-13T10:37:34.098Z,122.2495
2018-02-13T10:38:39.287Z,121.9985
2018-02-13T10:39:44.790Z,121.7449
2018-02-13T10:40:50.287Z,122.2495
2018-02-13T10:41:55.367Z,123.177
2018-02-13T10:43:01.359Z,121.7449
2018-02-13T10:44:06.831Z,122.2495
2018-02-13T10:45:12.085Z,123.6817
2018-02-13T10:46:17.735Z,123.177
2018-02-13T10:47:22.656Z,122.2495
2018-02-13T10:48:27.763Z,123.0079
2018-02-13T10:49:33.227Z,123.0079
2018-02-13T10:50:38.689Z,122.7542
2018-02-13T10:51:43.594Z,123.177
2018-02-13T10:52:48.776Z,122.5032
2018-02-13T10:53:54.121Z,123.177
2018-02-13T10:54:59.893Z,122.7542
2018-02-13T10:56:04.521Z,123.9353
2018-02-13T10:57:09.436Z,123.177
2018-02-13T10:58:15.315Z,123.6817
2018-02-13T10:59:20.481Z,123.6817
2018-02-13T11:00:40.323Z,123.9353
2018-02-13T11:01:45.819Z,123.9353
2018-02-13T11:02:51.004Z,123.0079
2018-02-13T11:03:56.800Z,123.9353
2018-02-13T11:05:01.972Z,123.177
2018-02-13T11:06:07.164Z,123.6817
2018-02-13T11:07:12.359Z,123.6817
2018-02-13T11:08:16.975Z,124.9447
2018-02-13T11:09:22.152Z,124.44
2018-02-13T11:10:27.664Z,124.9447
2018-02-13T11:11:33.121Z,124.9447
2018-02-13T11:12:38.744Z,125.452
2018-02-13T11:13:43.951Z,125.452
2018-02-13T11:14:49.603Z,125.1984
2018-02-13T11:15:54.795Z,125.1984
2018-02-13T11:16:59.429Z,124.9447
2018-02-13T11:18:04.660Z,125.7876
2018-02-13T11:19:10.640Z,126.0413
2018-02-13T11:20:15.816Z,126.2949
2018-02-13T11:21:20.625Z,126.0413
2018-02-13T11:22:25.839Z,125.7876
2018-02-13T11:23:31.214Z,125.7876
2018-02-13T11:24:37.158Z,126.0413
2018-02-13T11:25:42.633Z,126.0413
2018-02-13T11:26:47.742Z,126.7996
2018-02-13T11:27:53.497Z,126.0413
2018-02-13T11:28:58.886Z,125.7876
2018-02-13T11:30:04.084Z,125.5366
2018-02-13T11:31:09.306Z,126.2949
2018-02-13T11:32:14.784Z,126.2949
2018-02-13T11:33:20.267Z,127.3043
2018-02-13T11:34:25.500Z,126.0413
2018-02-13T11:35:30.983Z,127.0506
2018-02-13T11:36:36.779Z,126.2949
2018-02-13T11:37:41.967Z,126.0413
2018-02-13T11:38:47.423Z,127.558
2018-02-13T11:39:53.223Z,126.2949
2018-02-13T11:40:58.704Z,125.7876
2018-02-13T11:42:04.168Z,125.452
2018-02-13T11:43:09.934Z,126.7996
2018-02-13T11:44:15.102Z,127.0506
2018-02-13T11:45:20.295Z,125.6185
2018-02-13T11:46:25.730Z,125.7876
2018-02-13T11:47:31.105Z,125.452
2018-02-13T11:48:36.342Z,125.7876
2018-02-13T11:49:41.225Z,125.7876
2018-02-13T11:50:46.412Z,126.2949
2018-02-13T11:51:52.281Z,126.0413
2018-02-13T11:52:57.092Z,126.0413
2018-02-13T11:54:02.291Z,125.7876
2018-02-13T11:55:08.044Z,127.0506
2018-02-13T11:56:13.512Z,127.0506
2018-02-13T11:57:18.979Z,126.7996
2018-02-13T11:58:24.184Z,126.2949
2018-02-13T11:59:29.108Z,126.7996
2018-02-13T12:00:34.341Z,126.0413
2018-02-13T12:01:39.531Z,126.2949
2018-02-13T12:02:45.008Z,127.3043
2018-02-13T12:03:50.820Z,127.0506
2018-02-13T12:04:56.277Z,126.7996
2018-02-13T12:06:00.915Z,126.7996
2018-02-13T12:07:06.523Z,127.0506
2018-02-13T12:08:11.831Z,128.0626
2018-02-13T12:09:17.005Z,127.3043
2018-02-13T12:10:22.650Z,127.558
2018-02-13T12:11:27.843Z,127.0506
2018-02-13T12:12:33.128Z,127.0506
2018-02-13T12:13:38.318Z,127.3043
2018-02-13T12:14:43.515Z,128.0626
2018-02-13T12:15:49.049Z,128.4854
2018-02-13T12:16:54.520Z,127.3043
2018-02-13T12:17:59.159Z,127.809
2018-02-13T12:19:04.669Z,127.809
2018-02-13T12:20:10.131Z,128.4854
2018-02-13T12:21:15.772Z,128.0626
2018-02-13T12:22:21.064Z,128.9055
2018-02-13T12:23:26.747Z,128.3163
2018-02-13T12:24:32.232Z,128.4854
2018-02-13T12:25:37.422Z,128.4854
2018-02-13T12:26:42.901Z,128.4854
2018-02-13T12:27:47.814Z,129.1592
2018-02-13T12:28:53.016Z,128.7364
2018-02-13T12:29:57.650Z,129.4102
2018-02-13T12:31:02.770Z,128.4854
2018-02-13T12:32:07.105Z,129.4102
2018-02-13T12:33:12.793Z,129.4102
2018-02-13T12:34:18.017Z,129.6639
2018-02-13T12:35:23.227Z,130.1712
2018-02-13T12:36:28.426Z,130.1712
2018-02-13T12:37:33.600Z,129.4102
2018-02-13T12:38:39.057Z,130.4222
2018-02-13T12:39:44.814Z,130.1712
2018-02-13T12:40:49.997Z,130.6759
2018-02-13T12:41:55.462Z,130.6759
2018-02-13T12:43:00.771Z,130.9296
2018-02-13T12:44:05.976Z,130.9296
2018-02-13T12:45:11.175Z,130.6759
2018-02-13T12:46:17.040Z,131.0987
2018-02-13T12:47:22.459Z,131.0987
2018-02-13T12:48:27.824Z,131.6033
2018-02-13T12:49:33.014Z,131.6033
2018-02-13T12:50:38.471Z,131.0987
2018-02-13T12:51:43.958Z,131.3497
2018-02-13T12:52:49.437Z,131.857